Brownfield, ME (04010)

9:54 PM EDT on August 03, 2015 (GMT -0400)
misty lane | | Change Station
CLOSE
Current Station
Personal Weather Station
Location: Brownfield, ME
Elevation: 404 ft
Nearby Weather Stations
Active Advisory: Severe Thunderstorm Warning Active Notice: Local Storm Report

Elev 404 ft 43.94 °N, 70.87 °W | Updated 14 minutes ago

Mostly Cloudy
Mostly Cloudy
65.2 °F
Feels Like 65.2 °F
N
0.0
Wind Variable Wind from SW
Gusts 0.0 mph

Today
High -- | Low -- °F
--% Chance of Precip.
Yesterday
High -- | Low -- °F
Precip. -- in
5:33 AM 8:05 PM
Waning Gibbous, 82% visible
Pressure 29.77 in
Visibility 9.0 miles
Clouds Mostly Cloudy 9500 ft
Mostly Cloudy 11000 ft
Dew Point 64 °F
Humidity 95%
Rainfall 0.03 in
Snow Depth Not available.
UV 0 out of 12
Pollen 5.60 out of 12
Air Quality Not available.
Flu Activity Not available.
METAR KIZG 040054Z AUTO 12004KT 9SM -RA BKN095 BKN110 18/18 A2978 RMK AO2 RAE25B44 SLP081 P0001 T01830183

More Conditions Fewer Conditions

Pressure 29.77 in
Visibility 9.0 miles
Clouds Mostly Cloudy 9500 ft
Mostly Cloudy 11000 ft
Dew Point 64 °F
Humidity 95%
Rainfall 0.03 in
Snow Depth Not available.
UV 0 out of 12
Pollen 5.60 out of 12
Air Quality Not available.
Flu Activity Not available.
METAR KIZG 040054Z AUTO 12004KT 9SM -RA BKN095 BKN110 18/18 A2978 RMK AO2 RAE25B44 SLP081 P0001 T01830183

More Conditions Fewer Conditions

10-Day Weather Forecast

×

Almanac

Astronomy

Aug. 03, 2015 Rise Set
Actual Time
Civil Twilight
Nautical Twilight
Astronomical Twilight
Moon
Length of Visible Light
Length of Day
Tomorrow will be .
, % of the Moon is Illuminated

Today's Extremes

State Highs State Lows

Community

WunderPhotos

Upload Photos

1,843,820 photos uploaded!

WunderBlogs® & News

Nearby

Air Quality

  Air Quality AQ Index Pollutant
Not available.

Snow Depth

Station Depth Elevation

Earthquake Activity

City Distance Mag. Time & Date
Minimum magnitude displayed is 2.5.

Coastal Water Temperatures

Place Temperature

Stations

Nearby Weather Stations

Station Location Temp. Windchill Dew Point Humidity Wind Precip. Elev Updated Type
                   
Severe Thunderstorm Warning
Statement as of 7:46 PM EDT on August 03, 2015

... The Severe Thunderstorm Warning for southwestern Oxford...
northwestern York and northwestern Cumberland counties is
cancelled...

the storms which prompted the warning have moved out of the area.
Therefore the warning has been cancelled.

Lat... Lon 4397 7094 4425 7096 4452 7101 4467 7076
      4432 7056 4385 7072 4378 7097
time... Mot... loc 2345z 257deg 44kt 4453 7052 4418 7047 4386 7060